Timişoara, România

10:07 PM EEST on mai 24, 2015 (GMT +0300)
Dumbravita | | Change Station
CLOSE
Current Station
Staţie meteo personală
Location: Timisoara, Timis
Elevation: 305 ft
Nearby Weather Stations

Elev 305 ft 45.80 °N, 21.24 °E | Updated 4 seconds ago

Scattered Clouds
Nori risipiţi
62.8 °F
Feels Like 62.8 °F
N
6.0
Vânt variabil Vânt from NV
Gusts 6.0 mph

astăzi
High -- | Low -- °F
--% Chance of Precip.
Ieri
High -- | Low -- °F
Precip. -- inch
5:54 AM 9:09 PM
Semilună în creştere, 41% visible
Presiunea 29.77 inch
Vizibilitatea 6.2 mile
Nori Nori risipiţi 4000 ft
Punctul de rouă 57 °F
Umiditatea 100%
Precipitaţii 0.25 inch
Adâncimea zăpezii Not available.
UV 0.0 out of 12
Pollen Not available.
Calitatea aerului Not available.
Flu Activity Not available.
METAR LRTR 241900Z 32007KT 280V010 9999 SCT040CB 18/17 Q1008 R11/29//95 NOSIG

More Conditions Fewer Conditions

Presiunea 29.77 inch
Vizibilitatea 6.2 mile
Nori Nori risipiţi 4000 ft
Punctul de rouă 57 °F
Umiditatea 100%
Precipitaţii 0.25 inch
Adâncimea zăpezii Not available.
UV 0.0 out of 12
Pollen Not available.
Calitatea aerului Not available.
Flu Activity Not available.
METAR LRTR 241900Z 32007KT 280V010 9999 SCT040CB 18/17 Q1008 R11/29//95 NOSIG

More Conditions Fewer Conditions

10-Day Weather Forecast

Almanac

Astronomie

May. 24, 2015 Răsărit Apus
Timpul Actual
Crepusculul Civil
Crepusculul nautic
Răsărit Astronomic
Luna
Durata zilei lumină
Lungimea zilei
Tomorrow will be .
, % of the Moon is Illuminated

Extremele de azi

Country Highs Country Lows

Community

WunderPhotos

Upload Photos

1,823,831 photos uploaded!

WunderBlogs® & News

Nearby

Calitatea aerului

  Calitatea aerului Index de calitate a aerului Poluat
Not available.

Adâncimea zapezii

Station Depth Elevation

Earthquake Activity

Oraş Distance Mag. Time & Date
Minimum magnitude displayed is 2.5.

Coastal Water Temperatures

Locul Temperatura

Stations

Nearby Weather Stations

Locaţia staţiei Temp Vânt rece Punctul de rouă Umiditatea Vânt Precip. Elev Actualizare Type